Pipe Spring National Monumen, Arizona
Current Conditions -  °F | °C
As of 8:15 AM on Saturday 22 Nov 2014 (Local Time) from KSGU Reporting Station
Clear Clear  
Wind Chill: 37°   Ceiling: Unl
Heat Index: 37°   Visibility: 10mi
Dew Point: 19°   Wind: 0mph
Humidity: 48%   Direction: NA
Pressure: 30.12"   Gusts: NA
Location:  36.9484°N, 112.529°W
Report Text: KSGU 221515Z AUTO 00000KT 10SM CLR 03/M07 A3012 RMK AO1
Loading
Personal Weather Stations






























Interactive Weather Map New forecast layout! Learn more

10-Day Weather Forecast

Advertisements
Track Severe Weather on mobile